Time;durP1;ratioP1;P1;durP2;ratioP2;P2;SDS_P1;SDS_P2;PMS_P1;PMS_P2;Temp;Humidity;BMP_temperature;BMP_pressure;BME280_temperature;BME280_humidity;BME280_pressure;Samples;Min_cycle;Max_cycle;Signal;HPM_P1;HPM_P2
2023/04/09 00:01:26;;;;;;;;;;;9.00;99.90;;;;;;5009243;28;208261;-68
2023/04/09 00:03:51;;;;;;;;;;;8.90;99.90;;;;;;5065598;28;19924;-69
2023/04/09 00:06:17;;;;;;;;;;;8.90;99.90;;;;;;4994711;28;210157;-69
2023/04/09 00:08:43;;;;;;;;;;;8.90;99.90;;;;;;5060680;28;19924;-70
2023/04/09 00:11:12;;;;;;;;;;;8.90;99.90;;;;;;4992186;28;205950;-70
2023/04/09 00:13:38;;;;;;;;;;;8.90;99.90;;;;;;5058800;28;19936;-71
2023/04/09 00:16:04;;;;;;;;;;;8.90;99.90;;;;;;5018192;28;217032;-69
2023/04/09 00:18:29;;;;;;;;;;;8.80;99.90;;;;;;5061527;28;19920;-69
2023/04/09 00:20:55;;;;;;;;;;;8.90;99.90;;;;;;5004516;28;217226;-70
2023/04/09 00:23:21;;;;;;;;;;;8.80;99.90;;;;;;5058965;28;19931;-70
2023/04/09 00:25:47;;;;;;;;;;;8.90;99.90;;;;;;5012257;28;231605;-69
2023/04/09 00:28:13;;;;;;;;;;;8.80;99.90;;;;;;5054467;28;19920;-68
2023/04/09 00:30:39;;;;;;;;;;;8.90;99.90;;;;;;5017687;28;210644;-69
2023/04/09 00:33:05;;;;;;;;;;;8.90;99.90;;;;;;5059985;28;19925;-69
2023/04/09 00:35:31;;;;;;;;;;;8.80;99.90;;;;;;5005703;28;206589;-69
2023/04/09 00:37:57;;;;;;;;;;;8.80;99.90;;;;;;5059937;28;19920;-71
2023/04/09 00:40:23;;;;;;;;;;;8.80;99.90;;;;;;5008565;28;167294;-70
2023/04/09 00:42:49;;;;;;;;;;;8.80;99.90;;;;;;5056666;28;20028;-69
2023/04/09 00:45:15;;;;;;;;;;;8.80;99.90;;;;;;5013191;28;206722;-70
2023/04/09 00:47:44;;;;;;;;;;;8.80;99.90;;;;;;5074467;28;19920;-69
2023/04/09 00:50:10;;;;;;;;;;;8.80;99.90;;;;;;5016075;28;208876;-69
2023/04/09 00:52:36;;;;;;;;;;;8.70;99.90;;;;;;5072249;28;19920;-68
2023/04/09 00:55:03;;;;;;;;;;;8.70;99.90;;;;;;5011356;28;210248;-70
2023/04/09 00:57:29;;;;;;;;;;;8.70;99.90;;;;;;5056556;28;19932;-68
2023/04/09 00:59:58;;;;;;;;;;;8.70;99.90;;;;;;4999860;28;209410;-70
2023/04/09 01:02:25;;;;;;;;;;;8.70;99.90;;;;;;5067670;28;19928;-70
2023/04/09 01:04:50;;;;;;;;;;;8.70;99.90;;;;;;5012788;28;207614;-70
2023/04/09 01:07:35;;;;;;;;;;;8.70;99.90;;;;;;5049044;28;20379;-68
2023/04/09 01:10:01;;;;;;;;;;;8.70;99.90;;;;;;5008262;28;212036;-70
2023/04/09 01:12:32;;;;;;;;;;;8.60;99.90;;;;;;5056675;28;20419;-71
2023/04/09 01:15:06;;;;;;;;;;;8.60;99.90;;;;;;5005366;28;206704;-70
2023/04/09 01:17:34;;;;;;;;;;;8.60;99.90;;;;;;5074274;28;19924;-71
2023/04/09 01:20:03;;;;;;;;;;;8.60;99.90;;;;;;5004821;28;207453;-70
2023/04/09 01:22:35;;;;;;;;;;;8.60;99.90;;;;;;5072911;28;19931;-70
2023/04/09 01:25:05;;;;;;;;;;;8.50;99.90;;;;;;5006211;28;206579;-69
2023/04/09 01:27:58;;;;;;;;;;;8.50;99.90;;;;;;5053971;28;19932;-70
2023/04/09 01:30:24;;;;;;;;;;;8.50;99.90;;;;;;4974339;28;207057;-71
2023/04/09 01:32:51;;;;;;;;;;;8.50;99.90;;;;;;5060167;28;20568;-70
2023/04/09 01:35:17;;;;;;;;;;;8.50;99.90;;;;;;5005567;28;209260;-71
2023/04/09 01:37:43;;;;;;;;;;;8.50;99.90;;;;;;5071203;28;20308;-69
2023/04/09 01:40:09;;;;;;;;;;;8.50;99.90;;;;;;5004776;28;251938;-69
2023/04/09 01:42:36;;;;;;;;;;;8.50;99.90;;;;;;5066506;28;19939;-69
2023/04/09 01:45:02;;;;;;;;;;;8.50;99.90;;;;;;5002209;28;208991;-69
2023/04/09 01:47:29;;;;;;;;;;;8.40;99.90;;;;;;5067180;28;19931;-69
2023/04/09 01:49:55;;;;;;;;;;;8.40;99.90;;;;;;5005045;28;208826;-69
2023/04/09 01:52:21;;;;;;;;;;;8.30;99.90;;;;;;5073325;28;19928;-69
2023/04/09 01:54:47;;;;;;;;;;;8.30;99.90;;;;;;5013464;28;208996;-70
2023/04/09 01:57:12;;;;;;;;;;;8.20;99.90;;;;;;5059694;28;19928;-67
2023/04/09 01:59:38;;;;;;;;;;;8.20;99.90;;;;;;5070305;28;19929;-70
2023/04/09 02:02:07;;;;;;;;;;;8.20;99.90;;;;;;5018999;28;207111;-70
2023/04/09 02:04:35;;;;;;;;;;;8.10;99.90;;;;;;5054713;28;19954;-71
2023/04/09 02:07:17;;;;;;;;;;;8.00;99.90;;;;;;4911582;28;2309731;-69
2023/04/09 02:09:44;;;;;;;;;;;8.00;99.90;;;;;;5044714;28;221701;-70
2023/04/09 02:12:12;;;;;;;;;;;7.90;99.90;;;;;;5013736;28;19928;-70
2023/04/09 02:14:39;;;;;;;;;;;7.90;99.90;;;;;;5060488;28;19932;-70
2023/04/09 02:17:05;;;;;;;;;;;7.80;99.90;;;;;;5008799;28;139742;-69
2023/04/09 02:19:39;;;;;;;;;;;7.70;99.90;;;;;;5060002;28;20376;-69
2023/04/09 02:22:05;;;;;;;;;;;7.70;99.90;;;;;;4996589;28;209053;-69
2023/04/09 02:24:31;;;;;;;;;;;7.60;99.90;;;;;;5072988;28;19931;-70
2023/04/09 02:26:57;;;;;;;;;;;7.50;99.90;;;;;;4994013;28;211846;-69
2023/04/09 02:29:24;;;;;;;;;;;7.50;99.90;;;;;;5061687;28;21676;-69
2023/04/09 02:31:52;;;;;;;;;;;7.50;99.90;;;;;;5020928;28;207417;-69
2023/04/09 02:34:19;;;;;;;;;;;7.50;99.90;;;;;;5059220;28;19932;-71
2023/04/09 02:36:45;;;;;;;;;;;7.50;99.90;;;;;;5000836;28;190631;-68
2023/04/09 02:39:11;;;;;;;;;;;7.50;99.90;;;;;;5068309;28;19963;-69
2023/04/09 02:41:37;;;;;;;;;;;7.50;99.90;;;;;;4993723;28;173074;-69
2023/04/09 02:44:03;;;;;;;;;;;7.50;99.90;;;;;;5064790;28;20300;-71
2023/04/09 02:46:31;;;;;;;;;;;7.60;99.90;;;;;;5006623;28;255582;-70
2023/04/09 02:48:57;;;;;;;;;;;7.60;99.90;;;;;;5060205;28;19940;-70
2023/04/09 02:51:23;;;;;;;;;;;7.60;99.90;;;;;;5026424;28;208471;-69
2023/04/09 02:53:49;;;;;;;;;;;7.60;99.90;;;;;;5069194;28;19931;-67
2023/04/09 02:56:15;;;;;;;;;;;7.70;99.90;;;;;;4945903;28;1671679;-68
2023/04/09 02:58:41;;;;;;;;;;;7.70;99.90;;;;;;5060065;28;19944;-69
2023/04/09 03:01:07;;;;;;;;;;;7.70;99.90;;;;;;5007088;28;211460;-70
2023/04/09 03:03:33;;;;;;;;;;;7.70;99.90;;;;;;5058945;28;19950;-68
2023/04/09 03:05:59;;;;;;;;;;;7.80;99.90;;;;;;5003946;28;207659;-68
2023/04/09 03:08:25;;;;;;;;;;;7.80;99.90;;;;;;5064578;28;19928;-69
2023/04/09 03:10:51;;;;;;;;;;;7.80;99.90;;;;;;5004554;28;213514;-69
2023/04/09 03:13:16;;;;;;;;;;;7.80;99.90;;;;;;5056791;28;20011;-69
2023/04/09 03:15:42;;;;;;;;;;;7.80;99.90;;;;;;5008070;28;205220;-70
2023/04/09 03:18:08;;;;;;;;;;;7.80;99.90;;;;;;5067061;28;19928;-69
2023/04/09 03:20:36;;;;;;;;;;;7.80;99.90;;;;;;5013261;28;209277;-70
2023/04/09 03:23:02;;;;;;;;;;;7.80;99.90;;;;;;5056050;28;19944;-70
2023/04/09 03:25:28;;;;;;;;;;;7.80;99.90;;;;;;5001048;28;214962;-69
2023/04/09 03:27:54;;;;;;;;;;;7.80;99.90;;;;;;5043782;28;20377;-69
2023/04/09 03:30:20;;;;;;;;;;;7.80;99.90;;;;;;4992910;28;214456;-69
2023/04/09 03:32:46;;;;;;;;;;;7.80;99.90;;;;;;5054895;28;19925;-70
2023/04/09 03:35:11;;;;;;;;;;;7.80;99.90;;;;;;5008390;28;207571;-69
2023/04/09 03:37:37;;;;;;;;;;;7.80;99.90;;;;;;5056004;28;19920;-69
2023/04/09 03:40:04;;;;;;;;;;;7.80;99.90;;;;;;5003736;28;207860;-70
2023/04/09 03:42:30;;;;;;;;;;;7.90;99.90;;;;;;5052744;28;19936;-69
2023/04/09 03:44:56;;;;;;;;;;;7.80;99.90;;;;;;5001868;28;224240;-70
2023/04/09 03:47:22;;;;;;;;;;;7.80;99.90;;;;;;5072750;28;20505;-70
2023/04/09 03:49:48;;;;;;;;;;;7.90;99.90;;;;;;5012777;28;207800;-70
2023/04/09 03:52:13;;;;;;;;;;;7.90;99.90;;;;;;5066054;28;19949;-70
2023/04/09 03:54:39;;;;;;;;;;;7.80;99.90;;;;;;5060556;28;20389;-67
2023/04/09 03:57:05;;;;;;;;;;;7.80;99.90;;;;;;4999739;28;272933;-70
2023/04/09 03:59:31;;;;;;;;;;;7.80;99.90;;;;;;5062578;28;19924;-70
2023/04/09 04:01:57;;;;;;;;;;;7.80;99.90;;;;;;5017438;28;209917;-69
2023/04/09 04:04:23;;;;;;;;;;;7.80;99.90;;;;;;5065199;28;19935;-68
2023/04/09 04:06:49;;;;;;;;;;;7.80;99.90;;;;;;4903269;28;1794655;-68
2023/04/09 04:09:15;;;;;;;;;;;7.80;99.90;;;;;;5085428;28;19925;-68
2023/04/09 04:11:41;;;;;;;;;;;7.80;99.90;;;;;;5021588;28;209733;-70
2023/04/09 04:14:07;;;;;;;;;;;7.80;99.90;;;;;;5067504;28;19928;-69
2023/04/09 04:16:33;;;;;;;;;;;7.80;99.90;;;;;;5013468;28;221830;-72
2023/04/09 04:18:59;;;;;;;;;;;7.80;99.90;;;;;;5062848;28;19932;-69
2023/04/09 04:21:26;;;;;;;;;;;7.90;99.90;;;;;;5017441;28;235203;-69
2023/04/09 04:23:53;;;;;;;;;;;7.90;99.90;;;;;;5061947;28;19931;-70
2023/04/09 04:26:18;;;;;;;;;;;7.90;99.90;;;;;;5011094;28;208238;-69
2023/04/09 04:28:45;;;;;;;;;;;7.80;99.90;;;;;;5065963;28;19948;-69
2023/04/09 04:31:11;;;;;;;;;;;7.90;99.90;;;;;;4985285;28;202801;-69
2023/04/09 04:33:37;;;;;;;;;;;7.80;99.90;;;;;;5057924;28;19921;-69
2023/04/09 04:36:05;;;;;;;;;;;7.90;99.90;;;;;;5018676;28;209534;-69
2023/04/09 04:38:31;;;;;;;;;;;7.80;99.90;;;;;;5058633;28;19931;-69
2023/04/09 04:40:57;;;;;;;;;;;7.80;99.90;;;;;;5013316;28;211740;-69
2023/04/09 04:43:23;;;;;;;;;;;7.80;99.90;;;;;;5061546;28;19931;-70
2023/04/09 04:45:49;;;;;;;;;;;7.90;99.90;;;;;;5009347;28;208899;-71
2023/04/09 04:48:15;;;;;;;;;;;7.80;99.90;;;;;;5067946;28;19932;-70
2023/04/09 04:50:41;;;;;;;;;;;7.80;99.90;;;;;;4994403;28;209820;-70
2023/04/09 04:53:07;;;;;;;;;;;7.80;99.90;;;;;;5040945;28;20825;-69
2023/04/09 04:55:36;;;;;;;;;;;7.80;99.90;;;;;;5010389;28;207048;-70
2023/04/09 04:58:01;;;;;;;;;;;7.80;99.90;;;;;;5067843;28;19921;-69
2023/04/09 05:00:28;;;;;;;;;;;7.90;99.90;;;;;;4991773;28;200232;-68
2023/04/09 05:02:53;;;;;;;;;;;7.90;99.90;;;;;;5071187;28;19920;-70
2023/04/09 05:05:19;;;;;;;;;;;7.90;99.90;;;;;;4979819;28;219238;-69
2023/04/09 05:07:45;;;;;;;;;;;7.90;99.90;;;;;;5035178;28;19925;-70
2023/04/09 05:10:11;;;;;;;;;;;7.90;99.90;;;;;;4997538;28;210961;-69
2023/04/09 05:12:37;;;;;;;;;;;7.90;99.90;;;;;;5058236;28;19940;-68
2023/04/09 05:15:03;;;;;;;;;;;7.90;99.90;;;;;;5012214;28;212514;-71
2023/04/09 05:17:29;;;;;;;;;;;7.90;99.90;;;;;;5054916;28;20384;-68
2023/04/09 05:19:56;;;;;;;;;;;7.90;99.90;;;;;;5001484;28;207772;-70
2023/04/09 05:22:22;;;;;;;;;;;7.90;99.90;;;;;;5068736;28;19929;-69
2023/04/09 05:24:48;;;;;;;;;;;7.90;99.90;;;;;;5008855;28;257894;-68
2023/04/09 05:27:14;;;;;;;;;;;7.90;99.90;;;;;;5062220;28;19921;-70
2023/04/09 05:29:40;;;;;;;;;;;7.90;99.90;;;;;;5058309;28;19952;-68
2023/04/09 05:32:08;;;;;;;;;;;8.00;99.90;;;;;;5017603;28;216843;-69
2023/04/09 05:34:34;;;;;;;;;;;8.00;99.90;;;;;;5058187;28;19928;-70
2023/04/09 05:37:04;;;;;;;;;;;8.00;99.90;;;;;;4987283;28;278390;-69
2023/04/09 05:39:31;;;;;;;;;;;8.00;99.90;;;;;;5058843;28;19928;-68
2023/04/09 05:41:57;;;;;;;;;;;8.00;99.90;;;;;;4988372;28;206177;-69
2023/04/09 05:44:23;;;;;;;;;;;8.00;99.90;;;;;;5061637;28;19920;-70
2023/04/09 05:46:49;;;;;;;;;;;8.10;99.90;;;;;;5013463;28;192776;-70
2023/04/09 05:49:15;;;;;;;;;;;8.10;99.90;;;;;;5059963;28;19921;-69
2023/04/09 05:51:42;;;;;;;;;;;8.10;99.90;;;;;;5012410;28;208891;-70
2023/04/09 05:54:08;;;;;;;;;;;8.10;99.90;;;;;;5059228;28;19928;-69
2023/04/09 05:56:34;;;;;;;;;;;8.20;99.90;;;;;;5010442;28;209977;-68
2023/04/09 05:59:00;;;;;;;;;;;8.10;99.90;;;;;;5063444;28;19932;-70
2023/04/09 06:01:26;;;;;;;;;;;8.10;99.90;;;;;;5020546;28;210769;-70
2023/04/09 06:03:52;;;;;;;;;;;8.10;99.90;;;;;;5057990;28;20296;-69
2023/04/09 06:06:18;;;;;;;;;;;8.10;99.90;;;;;;4970154;28;164816;-69
2023/04/09 06:08:44;;;;;;;;;;;8.10;99.90;;;;;;5054363;28;20270;-68
2023/04/09 06:11:10;;;;;;;;;;;8.10;99.90;;;;;;5015842;28;217177;-69
2023/04/09 06:13:36;;;;;;;;;;;8.20;99.90;;;;;;5066006;28;19920;-68
2023/04/09 06:16:03;;;;;;;;;;;8.30;99.90;;;;;;4996197;28;209608;-68
2023/04/09 06:18:29;;;;;;;;;;;8.20;99.90;;;;;;5057170;28;19931;-69
2023/04/09 06:21:05;;;;;;;;;;;8.30;99.90;;;;;;5007917;28;241888;-69
2023/04/09 06:23:34;;;;;;;;;;;8.30;99.90;;;;;;5070549;28;19935;-69
2023/04/09 06:26:01;;;;;;;;;;;8.30;99.90;;;;;;5003416;28;213362;-69
2023/04/09 06:28:27;;;;;;;;;;;8.40;99.90;;;;;;5064094;28;19927;-70
2023/04/09 06:30:54;;;;;;;;;;;8.30;99.90;;;;;;5015730;28;216373;-68
2023/04/09 06:33:20;;;;;;;;;;;8.40;99.90;;;;;;5066208;28;20308;-69
2023/04/09 06:35:47;;;;;;;;;;;8.40;99.90;;;;;;4998205;28;210182;-68
2023/04/09 06:38:14;;;;;;;;;;;8.40;99.90;;;;;;5052631;28;19936;-70
2023/04/09 06:40:40;;;;;;;;;;;8.40;99.90;;;;;;5015387;28;241331;-69
2023/04/09 06:43:06;;;;;;;;;;;8.40;99.90;;;;;;5040280;28;19924;-69
2023/04/09 06:45:32;;;;;;;;;;;8.50;99.90;;;;;;5009690;28;189286;-69
2023/04/09 06:47:59;;;;;;;;;;;8.50;99.90;;;;;;5067537;28;19924;-68
2023/04/09 06:50:25;;;;;;;;;;;8.50;99.90;;;;;;4999732;28;210037;-70
2023/04/09 06:52:51;;;;;;;;;;;8.50;99.90;;;;;;5053795;28;19935;-68
2023/04/09 06:55:17;;;;;;;;;;;8.60;99.90;;;;;;5012912;28;209635;-68
2023/04/09 06:57:43;;;;;;;;;;;8.60;99.90;;;;;;5067456;28;19931;-69
2023/04/09 07:00:09;;;;;;;;;;;8.60;99.90;;;;;;5003328;28;209584;-69
2023/04/09 07:02:35;;;;;;;;;;;8.70;99.90;;;;;;5059876;28;19921;-68
2023/04/09 07:05:02;;;;;;;;;;;8.70;99.90;;;;;;4980788;28;209519;-70
2023/04/09 07:07:28;;;;;;;;;;;8.70;99.90;;;;;;5059344;28;19928;-68
2023/04/09 07:09:54;;;;;;;;;;;8.70;99.90;;;;;;5002827;28;208101;-70
2023/04/09 07:12:30;;;;;;;;;;;8.70;99.90;;;;;;5055542;28;19928;-68
2023/04/09 07:15:00;;;;;;;;;;;8.80;99.90;;;;;;4946078;28;1812704;-70
2023/04/09 07:17:25;;;;;;;;;;;8.80;99.90;;;;;;5056529;28;19920;-70
2023/04/09 07:19:53;;;;;;;;;;;8.80;99.90;;;;;;5001633;28;213864;-69
2023/04/09 07:22:22;;;;;;;;;;;8.90;99.90;;;;;;5069059;28;20400;-71
2023/04/09 07:24:54;;;;;;;;;;;9.00;99.90;;;;;;5009752;28;205599;-68
2023/04/09 07:27:20;;;;;;;;;;;9.10;99.90;;;;;;5056989;28;19924;-70
2023/04/09 07:29:46;;;;;;;;;;;9.20;99.90;;;;;;5014851;28;215916;-69
2023/04/09 07:32:12;;;;;;;;;;;9.30;99.90;;;;;;5051555;28;19928;-70
2023/04/09 07:34:38;;;;;;;;;;;9.40;99.90;;;;;;5055194;28;20408;-71
2023/04/09 07:37:04;;;;;;;;;;;9.40;99.90;;;;;;5011455;28;235162;-71
2023/04/09 07:39:30;;;;;;;;;;;9.50;99.90;;;;;;5056923;28;20396;-70
2023/04/09 07:41:56;;;;;;;;;;;9.60;99.90;;;;;;5019496;28;207015;-68
2023/04/09 07:44:23;;;;;;;;;;;9.50;99.90;;;;;;5055174;28;20031;-69
2023/04/09 07:46:49;;;;;;;;;;;9.50;99.90;;;;;;4976931;28;209891;-70
2023/04/09 07:49:16;;;;;;;;;;;9.60;99.90;;;;;;5075591;28;20347;-68
2023/04/09 07:51:42;;;;;;;;;;;9.60;99.90;;;;;;5002735;28;156522;-68
2023/04/09 07:54:08;;;;;;;;;;;9.70;99.90;;;;;;5063901;28;19924;-68
2023/04/09 07:56:34;;;;;;;;;;;9.80;99.90;;;;;;5009930;28;207211;-69
2023/04/09 07:59:00;;;;;;;;;;;9.80;99.90;;;;;;5067719;28;19931;-69
2023/04/09 08:01:26;;;;;;;;;;;9.90;99.90;;;;;;5018504;28;160740;-68
2023/04/09 08:03:52;;;;;;;;;;;9.90;99.90;;;;;;5067267;28;19973;-68
2023/04/09 08:06:18;;;;;;;;;;;10.10;99.90;;;;;;4988385;28;211083;-68
2023/04/09 08:08:44;;;;;;;;;;;10.20;99.90;;;;;;5057582;28;19931;-69
2023/04/09 08:11:10;;;;;;;;;;;10.10;99.90;;;;;;5009333;28;206516;-69
2023/04/09 08:13:36;;;;;;;;;;;10.20;99.90;;;;;;5067843;28;20395;-68
2023/04/09 08:16:02;;;;;;;;;;;10.20;99.90;;;;;;4998601;28;207184;-69
2023/04/09 08:18:28;;;;;;;;;;;10.20;99.90;;;;;;5067308;28;19932;-68
2023/04/09 08:20:55;;;;;;;;;;;10.30;99.90;;;;;;5009350;28;217747;-67
2023/04/09 08:23:21;;;;;;;;;;;10.30;99.90;;;;;;5071228;28;19931;-68
2023/04/09 08:25:46;;;;;;;;;;;10.30;99.90;;;;;;5013083;28;206225;-68
2023/04/09 08:28:12;;;;;;;;;;;10.30;99.90;;;;;;5066618;28;20187;-68
2023/04/09 08:30:38;;;;;;;;;;;10.40;99.90;;;;;;5004549;28;209411;-69
2023/04/09 08:33:04;;;;;;;;;;;10.50;99.90;;;;;;5054540;28;19924;-68
2023/04/09 08:35:31;;;;;;;;;;;10.70;99.90;;;;;;5016779;28;207440;-68
2023/04/09 08:37:57;;;;;;;;;;;10.70;99.90;;;;;;5066761;28;19924;-69
2023/04/09 08:40:24;;;;;;;;;;;10.80;99.90;;;;;;5001052;28;236721;-70
2023/04/09 08:42:56;;;;;;;;;;;10.80;99.90;;;;;;5059677;28;19928;-69
2023/04/09 08:45:21;;;;;;;;;;;10.80;99.90;;;;;;5010885;28;207178;-68
2023/04/09 08:47:49;;;;;;;;;;;11.00;99.90;;;;;;5077179;28;19931;-70
2023/04/09 08:50:15;;;;;;;;;;;11.30;99.90;;;;;;5009302;28;207321;-69
2023/04/09 08:52:41;;;;;;;;;;;11.50;99.90;;;;;;5061773;28;19932;-70
2023/04/09 08:55:07;;;;;;;;;;;11.60;99.90;;;;;;5010136;28;208330;-68
2023/04/09 08:57:37;;;;;;;;;;;11.90;99.90;;;;;;5068748;28;20404;-69
2023/04/09 09:00:03;;;;;;;;;;;12.00;99.90;;;;;;5014781;28;209319;-69
2023/04/09 09:02:30;;;;;;;;;;;11.90;99.90;;;;;;5060298;28;20292;-69
2023/04/09 09:04:59;;;;;;;;;;;12.10;99.90;;;;;;5003218;28;252027;-69
2023/04/09 09:07:28;;;;;;;;;;;12.00;99.90;;;;;;5047820;28;19939;-69
2023/04/09 09:09:55;;;;;;;;;;;12.10;99.90;;;;;;5006202;28;208843;-68
2023/04/09 09:12:40;;;;;;;;;;;12.20;99.90;;;;;;5057268;28;19917;-69
2023/04/09 09:15:26;;;;;;;;;;;12.20;99.90;;;;;;5007301;28;220303;-69
2023/04/09 09:17:54;;;;;;;;;;;12.20;99.90;;;;;;5058775;28;19925;-68
2023/04/09 09:20:21;;;;;;;;;;;12.20;99.90;;;;;;5005067;28;207080;-68
2023/04/09 09:22:50;;;;;;;;;;;12.40;99.90;;;;;;5063871;28;19920;-68
2023/04/09 09:25:16;;;;;;;;;;;12.50;99.90;;;;;;5013152;28;209100;-70
2023/04/09 09:27:42;;;;;;;;;;;12.50;99.90;;;;;;5069628;28;19924;-69
2023/04/09 09:30:19;;;;;;;;;;;12.50;99.90;;;;;;5005747;28;208762;-69
2023/04/09 09:32:45;;;;;;;;;;;12.60;99.90;;;;;;5056962;28;19928;-69
2023/04/09 09:35:11;;;;;;;;;;;12.60;99.90;;;;;;4998960;28;206628;-69
2023/04/09 09:37:37;;;;;;;;;;;12.70;99.90;;;;;;5054284;28;19960;-70
2023/04/09 09:40:03;;;;;;;;;;;12.80;99.90;;;;;;5013905;28;208720;-69
2023/04/09 09:42:29;;;;;;;;;;;12.90;99.90;;;;;;5052572;28;19924;-69
2023/04/09 09:44:55;;;;;;;;;;;13.00;99.90;;;;;;5010450;28;210636;-70
2023/04/09 09:47:21;;;;;;;;;;;13.10;99.90;;;;;;5067974;28;19925;-69
2023/04/09 09:49:49;;;;;;;;;;;13.00;99.90;;;;;;5017431;28;206863;-68
2023/04/09 09:52:16;;;;;;;;;;;13.00;99.90;;;;;;5030290;28;19928;-69
2023/04/09 09:54:46;;;;;;;;;;;13.20;99.90;;;;;;5057503;28;207426;-69
2023/04/09 09:57:12;;;;;;;;;;;13.20;99.90;;;;;;5011397;28;19955;-69
2023/04/09 10:00:04;;;;;;;;;;;13.30;99.90;;;;;;5054986;28;19928;-69
2023/04/09 10:02:36;;;;;;;;;;;13.40;99.90;;;;;;4980654;28;142108;-69
2023/04/09 10:05:04;;;;;;;;;;;13.50;99.90;;;;;;5007444;28;269550;-69
2023/04/09 10:07:30;;;;;;;;;;;13.60;99.90;;;;;;5063305;28;19947;-68
2023/04/09 10:09:57;;;;;;;;;;;13.50;99.90;;;;;;5000476;28;206956;-70
2023/04/09 10:12:23;;;;;;;;;;;13.60;99.90;;;;;;5070000;28;19932;-69
2023/04/09 10:14:50;;;;;;;;;;;13.70;99.90;;;;;;5011897;28;208299;-69
2023/04/09 10:17:17;;;;;;;;;;;13.60;99.90;;;;;;5043034;28;20012;-67
2023/04/09 10:19:45;;;;;;;;;;;13.50;99.90;;;;;;5037909;28;212646;-70
2023/04/09 10:22:12;;;;;;;;;;;13.60;99.90;;;;;;5030491;28;19935;-69
2023/04/09 10:24:39;;;;;;;;;;;13.80;99.90;;;;;;5059806;28;19928;-70
2023/04/09 10:27:11;;;;;;;;;;;14.10;99.90;;;;;;4964433;28;211098;-70
2023/04/09 10:29:46;;;;;;;;;;;14.20;99.90;;;;;;5059936;28;20058;-68
2023/04/09 10:32:20;;;;;;;;;;;14.40;99.90;;;;;;4996690;28;111422;-71
2023/04/09 10:34:47;;;;;;;;;;;14.30;99.90;;;;;;5029854;28;209008;-69
2023/04/09 10:37:14;;;;;;;;;;;14.20;99.90;;;;;;5005939;28;20290;-69
2023/04/09 10:39:43;;;;;;;;;;;14.50;99.90;;;;;;5058160;28;19928;-70
2023/04/09 10:42:13;;;;;;;;;;;14.80;99.90;;;;;;5022341;28;207195;-68
2023/04/09 10:44:40;;;;;;;;;;;15.10;99.90;;;;;;5058024;28;19920;-70
2023/04/09 10:47:10;;;;;;;;;;;15.00;99.90;;;;;;4975318;28;218727;-69
2023/04/09 10:49:37;;;;;;;;;;;14.90;99.90;;;;;;5053838;28;19924;-68
2023/04/09 10:52:03;;;;;;;;;;;15.00;99.90;;;;;;5012296;28;208958;-70
2023/04/09 10:54:38;;;;;;;;;;;15.00;99.90;;;;;;5061113;28;19966;-70
2023/04/09 10:57:10;;;;;;;;;;;15.10;99.90;;;;;;5004546;28;209287;-69
2023/04/09 10:59:42;;;;;;;;;;;15.20;99.90;;;;;;5055397;28;19932;-69
2023/04/09 11:02:12;;;;;;;;;;;15.30;99.90;;;;;;5009937;28;146891;-69
2023/04/09 11:04:42;;;;;;;;;;;15.20;99.60;;;;;;5054926;28;20246;-69
2023/04/09 11:07:08;;;;;;;;;;;14.70;99.60;;;;;;4993889;28;203250;-69
2023/04/09 11:09:35;;;;;;;;;;;14.50;99.90;;;;;;5053706;28;20628;-70
2023/04/09 11:12:02;;;;;;;;;;;14.40;99.90;;;;;;4991806;28;208439;-69
2023/04/09 11:14:28;;;;;;;;;;;14.70;99.90;;;;;;5058719;28;19924;-68
2023/04/09 11:16:54;;;;;;;;;;;14.90;99.90;;;;;;4996237;28;231030;-70
2023/04/09 11:19:20;;;;;;;;;;;15.00;99.90;;;;;;5052240;28;20409;-69
2023/04/09 11:21:47;;;;;;;;;;;15.30;99.90;;;;;;4998778;28;208371;-69
2023/04/09 11:24:13;;;;;;;;;;;16.20;99.90;;;;;;5058499;28;20015;-69
2023/04/09 11:26:39;;;;;;;;;;;16.30;99.90;;;;;;4995797;28;219577;-69
2023/04/09 11:29:08;;;;;;;;;;;16.30;99.90;;;;;;5059888;28;19959;-69
2023/04/09 11:31:34;;;;;;;;;;;16.30;99.40;;;;;;5020729;28;217562;-69
2023/04/09 11:34:01;;;;;;;;;;;16.00;99.50;;;;;;5072378;28;19942;-69
2023/04/09 11:36:30;;;;;;;;;;;16.00;99.90;;;;;;5000196;28;208750;-69
2023/04/09 11:38:57;;;;;;;;;;;16.30;99.90;;;;;;5054798;28;19928;-69
2023/04/09 11:41:33;;;;;;;;;;;16.50;99.90;;;;;;4987243;28;207075;-69
2023/04/09 11:44:01;;;;;;;;;;;16.40;99.50;;;;;;5061669;28;20031;-70
2023/04/09 11:46:27;;;;;;;;;;;17.40;99.90;;;;;;5011414;28;207106;-69
2023/04/09 11:48:56;;;;;;;;;;;17.80;99.90;;;;;;5060535;28;20042;-70
2023/04/09 11:51:22;;;;;;;;;;;17.90;98.10;;;;;;5019876;28;207374;-70
2023/04/09 11:53:48;;;;;;;;;;;17.80;99.10;;;;;;5059615;28;20676;-70
2023/04/09 11:56:14;;;;;;;;;;;17.90;98.50;;;;;;5015212;28;227871;-70
2023/04/09 11:58:45;;;;;;;;;;;17.70;98.30;;;;;;5042842;28;19928;-69
2023/04/09 12:01:12;;;;;;;;;;;17.60;97.40;;;;;;5004809;28;206928;-70
2023/04/09 12:03:37;;;;;;;;;;;17.70;98.40;;;;;;5056093;28;19950;-70
2023/04/09 12:06:04;;;;;;;;;;;17.70;98.70;;;;;;4987685;28;202507;-70
2023/04/09 12:08:35;;;;;;;;;;;17.70;98.60;;;;;;5059020;28;19924;-70
2023/04/09 12:11:14;;;;;;;;;;;18.10;98.70;;;;;;5003018;28;189791;-69
2023/04/09 12:13:42;;;;;;;;;;;18.20;99.00;;;;;;5057392;28;19936;-69
2023/04/09 12:16:09;;;;;;;;;;;18.70;98.50;;;;;;4992665;28;208771;-71
2023/04/09 12:18:36;;;;;;;;;;;19.40;97.80;;;;;;5075445;28;19924;-69
2023/04/09 12:21:02;;;;;;;;;;;20.30;98.10;;;;;;5015356;28;55775;-70
2023/04/09 12:23:30;;;;;;;;;;;21.00;97.10;;;;;;5064141;28;19928;-69
2023/04/09 12:25:59;;;;;;;;;;;20.90;96.50;;;;;;5006298;28;209699;-69
2023/04/09 12:28:25;;;;;;;;;;;20.90;97.20;;;;;;5054077;28;20346;-69
2023/04/09 12:30:52;;;;;;;;;;;21.50;96.30;;;;;;5001218;28;210222;-69
2023/04/09 12:33:18;;;;;;;;;;;21.70;95.70;;;;;;5059177;28;19924;-70
2023/04/09 12:35:43;;;;;;;;;;;21.00;92.60;;;;;;5003224;28;207584;-70
2023/04/09 12:38:10;;;;;;;;;;;19.60;93.10;;;;;;5067407;28;19928;-69
2023/04/09 12:40:36;;;;;;;;;;;19.10;94.90;;;;;;5008601;28;209523;-70
2023/04/09 12:43:02;;;;;;;;;;;19.20;96.40;;;;;;5056146;28;20383;-71
2023/04/09 12:45:28;;;;;;;;;;;19.50;96.10;;;;;;4995695;28;281367;-69
2023/04/09 12:47:54;;;;;;;;;;;19.40;94.90;;;;;;5054192;28;20237;-70
2023/04/09 12:50:20;;;;;;;;;;;19.40;94.80;;;;;;5008297;28;207059;-71
2023/04/09 12:52:46;;;;;;;;;;;19.60;95.30;;;;;;5068165;28;19921;-70
2023/04/09 12:55:12;;;;;;;;;;;20.10;94.50;;;;;;5002761;28;212074;-70
2023/04/09 12:57:43;;;;;;;;;;;20.90;95.80;;;;;;5057993;28;20389;-70
2023/04/09 13:00:09;;;;;;;;;;;21.70;94.40;;;;;;5000709;28;209807;-69
2023/04/09 13:02:35;;;;;;;;;;;22.20;92.90;;;;;;5051715;28;20011;-70
2023/04/09 13:05:03;;;;;;;;;;;22.70;92.70;;;;;;4884627;28;3000094;-70
2023/04/09 13:07:29;;;;;;;;;;;23.30;92.50;;;;;;5036389;28;19928;-70
2023/04/09 13:09:55;;;;;;;;;;;23.30;92.10;;;;;;5009459;28;231687;-72
2023/04/09 13:12:22;;;;;;;;;;;22.90;91.10;;;;;;5070918;28;19924;-71
2023/04/09 13:14:48;;;;;;;;;;;22.60;90.80;;;;;;5013965;28;207857;-71
2023/04/09 13:17:14;;;;;;;;;;;22.70;92.60;;;;;;5053194;28;19928;-70
2023/04/09 13:19:40;;;;;;;;;;;22.70;91.50;;;;;;5062426;28;19928;-69
2023/04/09 13:22:07;;;;;;;;;;;22.30;92.40;;;;;;5002182;28;210675;-71
2023/04/09 13:24:34;;;;;;;;;;;22.30;92.20;;;;;;5058186;28;20207;-69
2023/04/09 13:27:02;;;;;;;;;;;22.10;91.30;;;;;;4964525;28;276686;-69
2023/04/09 13:29:28;;;;;;;;;;;22.10;91.50;;;;;;5061986;28;19932;-70
2023/04/09 13:31:55;;;;;;;;;;;21.80;91.20;;;;;;5022227;28;141644;-70
2023/04/09 13:34:21;;;;;;;;;;;21.80;90.60;;;;;;5059214;28;19928;-70
2023/04/09 13:36:47;;;;;;;;;;;21.80;91.70;;;;;;5019574;28;207592;-70
2023/04/09 13:39:13;;;;;;;;;;;22.50;92.30;;;;;;5059785;28;20560;-70
2023/04/09 13:41:39;;;;;;;;;;;23.10;92.00;;;;;;5014105;28;207651;-70
2023/04/09 13:44:05;;;;;;;;;;;23.70;91.30;;;;;;5057253;28;19920;-71
2023/04/09 13:46:32;;;;;;;;;;;24.30;91.80;;;;;;5016662;28;207603;-71
2023/04/09 13:49:01;;;;;;;;;;;24.10;88.40;;;;;;5063876;28;19921;-70
2023/04/09 13:51:28;;;;;;;;;;;24.70;90.10;;;;;;5020497;28;225478;-71
2023/04/09 13:53:54;;;;;;;;;;;25.00;89.70;;;;;;5063658;28;20409;-70
2023/04/09 13:56:20;;;;;;;;;;;24.70;87.10;;;;;;5004795;28;207320;-70
2023/04/09 13:58:46;;;;;;;;;;;24.60;87.70;;;;;;5055379;28;19967;-70
2023/04/09 14:01:13;;;;;;;;;;;24.70;87.00;;;;;;5006996;28;206504;-70
2023/04/09 14:03:39;;;;;;;;;;;24.00;85.70;;;;;;5064093;28;19932;-70
2023/04/09 14:06:07;;;;;;;;;;;24.20;85.50;;;;;;4981534;28;207888;-70
2023/04/09 14:08:35;;;;;;;;;;;23.90;85.90;;;;;;5048676;28;19925;-71
2023/04/09 14:11:01;;;;;;;;;;;22.80;85.10;;;;;;5006168;28;248407;-70
2023/04/09 14:13:28;;;;;;;;;;;21.90;88.30;;;;;;5055136;28;20555;-70
2023/04/09 14:15:54;;;;;;;;;;;22.20;85.90;;;;;;5009503;28;207716;-71
2023/04/09 14:18:20;;;;;;;;;;;22.80;90.40;;;;;;5059170;28;19932;-70